sensor_id;sensor_type;location;lat;lon;timestamp;temperature;humidity
37518;DHT22;23366;52.498;13.446;2023-06-22T00:00:46;22.40;99.80
37518;DHT22;23366;52.498;13.446;2023-06-22T00:03:12;22.30;99.90
37518;DHT22;23366;52.498;13.446;2023-06-22T00:05:37;22.30;99.90
37518;DHT22;23366;52.498;13.446;2023-06-22T00:08:03;22.30;99.90
37518;DHT22;23366;52.498;13.446;2023-06-22T00:10:30;22.30;99.90
37518;DHT22;23366;52.498;13.446;2023-06-22T00:12:55;22.30;99.90
37518;DHT22;23366;52.498;13.446;2023-06-22T00:15:21;22.30;99.90
37518;DHT22;23366;52.498;13.446;2023-06-22T00:17:46;22.30;99.90
37518;DHT22;23366;52.498;13.446;2023-06-22T00:20:12;22.30;99.90
37518;DHT22;23366;52.498;13.446;2023-06-22T00:22:39;22.20;99.90
37518;DHT22;23366;52.498;13.446;2023-06-22T00:25:06;22.20;99.90
37518;DHT22;23366;52.498;13.446;2023-06-22T00:27:32;22.10;99.90
37518;DHT22;23366;52.498;13.446;2023-06-22T00:29:57;22.20;99.90
37518;DHT22;23366;52.498;13.446;2023-06-22T00:32:23;22.20;99.90
37518;DHT22;23366;52.498;13.446;2023-06-22T00:34:48;22.00;99.90
37518;DHT22;23366;52.498;13.446;2023-06-22T00:37:15;22.00;99.90
37518;DHT22;23366;52.498;13.446;2023-06-22T00:39:42;22.00;99.90
37518;DHT22;23366;52.498;13.446;2023-06-22T00:42:07;21.90;99.90
37518;DHT22;23366;52.498;13.446;2023-06-22T00:44:33;22.00;99.90
37518;DHT22;23366;52.498;13.446;2023-06-22T00:46:58;21.90;99.90
37518;DHT22;23366;52.498;13.446;2023-06-22T00:49:25;21.90;99.90
37518;DHT22;23366;52.498;13.446;2023-06-22T00:51:51;21.90;99.90
37518;DHT22;23366;52.498;13.446;2023-06-22T00:54:17;21.90;99.90
37518;DHT22;23366;52.498;13.446;2023-06-22T00:56:51;21.80;99.90
37518;DHT22;23366;52.498;13.446;2023-06-22T00:59:18;21.80;99.90
37518;DHT22;23366;52.498;13.446;2023-06-22T01:01:44;21.80;99.90
37518;DHT22;23366;52.498;13.446;2023-06-22T01:04:10;21.70;99.90
37518;DHT22;23366;52.498;13.446;2023-06-22T01:06:54;21.80;99.90
37518;DHT22;23366;52.498;13.446;2023-06-22T01:09:27;21.70;99.90
37518;DHT22;23366;52.498;13.446;2023-06-22T01:12:01;21.70;99.90
37518;DHT22;23366;52.498;13.446;2023-06-22T01:14:37;21.60;99.90
37518;DHT22;23366;52.498;13.446;2023-06-22T01:17:06;21.60;99.90
37518;DHT22;23366;52.498;13.446;2023-06-22T01:19:43;21.60;99.90
37518;DHT22;23366;52.498;13.446;2023-06-22T01:22:11;21.50;99.90
37518;DHT22;23366;52.498;13.446;2023-06-22T01:30:07;21.40;99.90
37518;DHT22;23366;52.498;13.446;2023-06-22T01:32:36;21.40;99.90
37518;DHT22;23366;52.498;13.446;2023-06-22T01:35:05;21.40;99.90
37518;DHT22;23366;52.498;13.446;2023-06-22T01:37:33;21.40;99.90
37518;DHT22;23366;52.498;13.446;2023-06-22T01:40:00;21.40;99.90
37518;DHT22;23366;52.498;13.446;2023-06-22T01:42:26;21.40;99.90
37518;DHT22;23366;52.498;13.446;2023-06-22T01:44:53;21.40;99.90
37518;DHT22;23366;52.498;13.446;2023-06-22T01:47:22;21.40;99.90
37518;DHT22;23366;52.498;13.446;2023-06-22T01:49:49;21.30;99.90
37518;DHT22;23366;52.498;13.446;2023-06-22T01:52:19;21.30;99.90
37518;DHT22;23366;52.498;13.446;2023-06-22T01:54:46;21.20;99.90
37518;DHT22;23366;52.498;13.446;2023-06-22T01:57:12;21.20;99.90
37518;DHT22;23366;52.498;13.446;2023-06-22T02:00:04;21.10;99.90
37518;DHT22;23366;52.498;13.446;2023-06-22T02:02:52;21.00;99.90
37518;DHT22;23366;52.498;13.446;2023-06-22T02:05:19;21.00;99.90
37518;DHT22;23366;52.498;13.446;2023-06-22T02:07:47;21.00;99.90
37518;DHT22;23366;52.498;13.446;2023-06-22T02:10:15;21.10;99.90
37518;DHT22;23366;52.498;13.446;2023-06-22T02:12:42;21.10;99.90
37518;DHT22;23366;52.498;13.446;2023-06-22T02:15:09;21.10;99.90
37518;DHT22;23366;52.498;13.446;2023-06-22T02:17:35;21.20;99.90
37518;DHT22;23366;52.498;13.446;2023-06-22T02:20:03;21.20;99.90
37518;DHT22;23366;52.498;13.446;2023-06-22T02:22:34;21.10;99.90
37518;DHT22;23366;52.498;13.446;2023-06-22T02:24:59;21.10;99.90
37518;DHT22;23366;52.498;13.446;2023-06-22T02:27:25;21.10;99.90
37518;DHT22;23366;52.498;13.446;2023-06-22T02:29:52;21.20;99.90
37518;DHT22;23366;52.498;13.446;2023-06-22T02:32:18;21.20;99.90
37518;DHT22;23366;52.498;13.446;2023-06-22T02:34:43;21.20;99.90
37518;DHT22;23366;52.498;13.446;2023-06-22T02:37:15;21.20;99.90
37518;DHT22;23366;52.498;13.446;2023-06-22T02:39:41;21.20;99.90
37518;DHT22;23366;52.498;13.446;2023-06-22T02:42:07;21.20;99.90
37518;DHT22;23366;52.498;13.446;2023-06-22T02:44:32;21.20;99.90
37518;DHT22;23366;52.498;13.446;2023-06-22T02:46:58;21.30;99.90
37518;DHT22;23366;52.498;13.446;2023-06-22T02:49:24;21.30;99.90
37518;DHT22;23366;52.498;13.446;2023-06-22T02:51:49;21.30;99.90
37518;DHT22;23366;52.498;13.446;2023-06-22T02:54:15;21.30;99.90
37518;DHT22;23366;52.498;13.446;2023-06-22T02:56:41;21.30;99.90
37518;DHT22;23366;52.498;13.446;2023-06-22T02:59:09;21.30;99.90
37518;DHT22;23366;52.498;13.446;2023-06-22T03:01:36;21.30;99.90
37518;DHT22;23366;52.498;13.446;2023-06-22T03:04:08;21.30;99.90
37518;DHT22;23366;52.498;13.446;2023-06-22T03:06:35;21.30;99.90
37518;DHT22;23366;52.498;13.446;2023-06-22T03:09:02;21.40;99.90
37518;DHT22;23366;52.498;13.446;2023-06-22T03:11:29;21.40;99.90
37518;DHT22;23366;52.498;13.446;2023-06-22T03:13:55;21.40;99.90
37518;DHT22;23366;52.498;13.446;2023-06-22T03:16:20;21.40;99.90
37518;DHT22;23366;52.498;13.446;2023-06-22T03:18:46;21.40;99.90
37518;DHT22;23366;52.498;13.446;2023-06-22T03:21:11;21.40;99.90
37518;DHT22;23366;52.498;13.446;2023-06-22T03:23:37;21.40;99.90
37518;DHT22;23366;52.498;13.446;2023-06-22T03:26:02;21.40;99.90
37518;DHT22;23366;52.498;13.446;2023-06-22T03:28:29;21.40;99.90
37518;DHT22;23366;52.498;13.446;2023-06-22T03:30:56;21.40;99.90
37518;DHT22;23366;52.498;13.446;2023-06-22T03:33:22;21.40;99.90
37518;DHT22;23366;52.498;13.446;2023-06-22T03:35:48;21.40;99.90
37518;DHT22;23366;52.498;13.446;2023-06-22T03:38:13;21.50;99.90
37518;DHT22;23366;52.498;13.446;2023-06-22T03:40:38;21.50;99.90
37518;DHT22;23366;52.498;13.446;2023-06-22T03:43:04;21.50;99.90
37518;DHT22;23366;52.498;13.446;2023-06-22T03:45:29;21.50;99.90
37518;DHT22;23366;52.498;13.446;2023-06-22T03:47:55;21.50;99.90
37518;DHT22;23366;52.498;13.446;2023-06-22T03:50:20;21.50;99.90
37518;DHT22;23366;52.498;13.446;2023-06-22T03:52:46;21.60;99.90
37518;DHT22;23366;52.498;13.446;2023-06-22T03:55:12;21.70;99.90
37518;DHT22;23366;52.498;13.446;2023-06-22T03:57:37;21.70;99.90
37518;DHT22;23366;52.498;13.446;2023-06-22T04:00:03;21.70;99.90
37518;DHT22;23366;52.498;13.446;2023-06-22T04:02:33;21.80;99.90
37518;DHT22;23366;52.498;13.446;2023-06-22T04:04:58;21.80;99.90
37518;DHT22;23366;52.498;13.446;2023-06-22T04:07:24;21.80;99.90
37518;DHT22;23366;52.498;13.446;2023-06-22T04:09:49;21.90;99.90
37518;DHT22;23366;52.498;13.446;2023-06-22T04:12:15;21.90;99.90
37518;DHT22;23366;52.498;13.446;2023-06-22T04:14:40;21.90;99.90
37518;DHT22;23366;52.498;13.446;2023-06-22T04:17:06;21.80;99.90
37518;DHT22;23366;52.498;13.446;2023-06-22T04:19:31;21.90;99.90
37518;DHT22;23366;52.498;13.446;2023-06-22T04:21:57;21.80;99.90
37518;DHT22;23366;52.498;13.446;2023-06-22T04:24:22;21.90;99.90
37518;DHT22;23366;52.498;13.446;2023-06-22T04:26:48;22.00;99.90
37518;DHT22;23366;52.498;13.446;2023-06-22T04:29:13;22.00;99.90
37518;DHT22;23366;52.498;13.446;2023-06-22T04:31:39;22.10;99.90
37518;DHT22;23366;52.498;13.446;2023-06-22T04:34:06;22.20;99.90
37518;DHT22;23366;52.498;13.446;2023-06-22T04:36:37;22.30;99.90
37518;DHT22;23366;52.498;13.446;2023-06-22T04:39:07;22.60;99.90
37518;DHT22;23366;52.498;13.446;2023-06-22T04:41:35;22.90;99.90
37518;DHT22;23366;52.498;13.446;2023-06-22T04:44:11;23.20;99.90
37518;DHT22;23366;52.498;13.446;2023-06-22T04:46:37;23.60;99.90
37518;DHT22;23366;52.498;13.446;2023-06-22T04:49:05;24.00;99.90
37518;DHT22;23366;52.498;13.446;2023-06-22T04:51:31;24.80;99.90
37518;DHT22;23366;52.498;13.446;2023-06-22T04:53:57;25.60;99.90
37518;DHT22;23366;52.498;13.446;2023-06-22T04:56:26;26.30;99.30
37518;DHT22;23366;52.498;13.446;2023-06-22T04:58:53;27.10;97.60
37518;DHT22;23366;52.498;13.446;2023-06-22T05:01:22;27.90;95.80
37518;DHT22;23366;52.498;13.446;2023-06-22T05:03:48;28.40;93.70
37518;DHT22;23366;52.498;13.446;2023-06-22T05:06:13;29.10;92.70
37518;DHT22;23366;52.498;13.446;2023-06-22T05:08:40;29.40;90.90
37518;DHT22;23366;52.498;13.446;2023-06-22T05:11:09;29.70;90.60
37518;DHT22;23366;52.498;13.446;2023-06-22T05:13:34;29.90;89.60
37518;DHT22;23366;52.498;13.446;2023-06-22T05:16:00;30.10;88.20
37518;DHT22;23366;52.498;13.446;2023-06-22T05:18:29;29.80;87.70
37518;DHT22;23366;52.498;13.446;2023-06-22T05:20:55;29.30;88.30
37518;DHT22;23366;52.498;13.446;2023-06-22T05:23:20;29.30;87.60
37518;DHT22;23366;52.498;13.446;2023-06-22T05:25:46;29.30;88.00
37518;DHT22;23366;52.498;13.446;2023-06-22T05:28:11;29.00;88.00
37518;DHT22;23366;52.498;13.446;2023-06-22T05:30:37;28.70;88.30
37518;DHT22;23366;52.498;13.446;2023-06-22T05:33:03;28.50;89.50
37518;DHT22;23366;52.498;13.446;2023-06-22T05:35:29;28.50;90.00
37518;DHT22;23366;52.498;13.446;2023-06-22T05:37:55;28.20;89.90
37518;DHT22;23366;52.498;13.446;2023-06-22T05:40:21;27.50;90.50
37518;DHT22;23366;52.498;13.446;2023-06-22T05:42:46;27.20;91.20
37518;DHT22;23366;52.498;13.446;2023-06-22T05:45:12;27.30;90.60
37518;DHT22;23366;52.498;13.446;2023-06-22T05:47:38;27.30;91.00
37518;DHT22;23366;52.498;13.446;2023-06-22T05:50:04;27.20;91.30
37518;DHT22;23366;52.498;13.446;2023-06-22T05:52:32;27.00;91.30
37518;DHT22;23366;52.498;13.446;2023-06-22T05:54:58;26.80;91.20
37518;DHT22;23366;52.498;13.446;2023-06-22T05:57:23;26.60;91.40
37518;DHT22;23366;52.498;13.446;2023-06-22T05:59:48;26.20;91.80
37518;DHT22;23366;52.498;13.446;2023-06-22T06:02:14;25.80;92.60
37518;DHT22;23366;52.498;13.446;2023-06-22T06:04:45;25.70;93.20
37518;DHT22;23366;52.498;13.446;2023-06-22T06:07:11;25.90;93.40
37518;DHT22;23366;52.498;13.446;2023-06-22T06:09:36;26.20;92.90
37518;DHT22;23366;52.498;13.446;2023-06-22T06:12:02;26.60;92.60
37518;DHT22;23366;52.498;13.446;2023-06-22T06:14:28;26.80;92.10
37518;DHT22;23366;52.498;13.446;2023-06-22T06:16:54;27.00;92.10
37518;DHT22;23366;52.498;13.446;2023-06-22T06:19:19;27.90;91.40
37518;DHT22;23366;52.498;13.446;2023-06-22T06:21:44;29.00;88.70
37518;DHT22;23366;52.498;13.446;2023-06-22T06:24:11;29.10;86.80
37518;DHT22;23366;52.498;13.446;2023-06-22T06:26:37;29.30;86.00
37518;DHT22;23366;52.498;13.446;2023-06-22T06:29:02;29.90;85.20
37518;DHT22;23366;52.498;13.446;2023-06-22T06:31:28;31.00;82.80
37518;DHT22;23366;52.498;13.446;2023-06-22T06:33:54;31.90;79.20
37518;DHT22;23366;52.498;13.446;2023-06-22T06:36:20;32.60;77.20
37518;DHT22;23366;52.498;13.446;2023-06-22T06:38:47;33.40;75.30
37518;DHT22;23366;52.498;13.446;2023-06-22T06:41:14;34.10;72.90
37518;DHT22;23366;52.498;13.446;2023-06-22T06:43:40;34.90;69.50
37518;DHT22;23366;52.498;13.446;2023-06-22T06:46:05;35.90;68.70
37518;DHT22;23366;52.498;13.446;2023-06-22T06:48:31;35.90;65.10
37518;DHT22;23366;52.498;13.446;2023-06-22T06:50:56;35.20;64.60
37518;DHT22;23366;52.498;13.446;2023-06-22T06:53:22;34.20;64.90
37518;DHT22;23366;52.498;13.446;2023-06-22T06:55:47;33.60;66.50
37518;DHT22;23366;52.498;13.446;2023-06-22T06:58:13;32.80;66.60
37518;DHT22;23366;52.498;13.446;2023-06-22T07:00:39;32.20;68.70
37518;DHT22;23366;52.498;13.446;2023-06-22T07:03:05;31.60;69.90
37518;DHT22;23366;52.498;13.446;2023-06-22T07:05:30;31.00;70.60
37518;DHT22;23366;52.498;13.446;2023-06-22T07:07:56;30.80;71.00
37518;DHT22;23366;52.498;13.446;2023-06-22T07:10:21;30.50;71.30
37518;DHT22;23366;52.498;13.446;2023-06-22T07:12:47;30.70;70.60
37518;DHT22;23366;52.498;13.446;2023-06-22T07:15:13;30.70;70.10
37518;DHT22;23366;52.498;13.446;2023-06-22T07:17:39;30.90;71.10
37518;DHT22;23366;52.498;13.446;2023-06-22T07:20:07;31.90;70.60
37518;DHT22;23366;52.498;13.446;2023-06-22T07:22:36;33.50;68.20
37518;DHT22;23366;52.498;13.446;2023-06-22T07:25:02;34.90;64.80
37518;DHT22;23366;52.498;13.446;2023-06-22T07:27:37;35.80;61.80
37518;DHT22;23366;52.498;13.446;2023-06-22T07:30:04;36.40;59.90
37518;DHT22;23366;52.498;13.446;2023-06-22T07:32:29;37.40;58.40
37518;DHT22;23366;52.498;13.446;2023-06-22T07:34:55;38.60;57.00
37518;DHT22;23366;52.498;13.446;2023-06-22T07:37:21;38.60;55.30
37518;DHT22;23366;52.498;13.446;2023-06-22T07:39:46;38.00;55.30
37518;DHT22;23366;52.498;13.446;2023-06-22T07:42:12;37.80;56.00
37518;DHT22;23366;52.498;13.446;2023-06-22T07:44:37;37.40;55.60
37518;DHT22;23366;52.498;13.446;2023-06-22T07:47:03;36.40;55.20
37518;DHT22;23366;52.498;13.446;2023-06-22T07:49:28;35.90;56.00
37518;DHT22;23366;52.498;13.446;2023-06-22T07:51:54;36.00;56.30
37518;DHT22;23366;52.498;13.446;2023-06-22T07:54:20;35.70;56.00
37518;DHT22;23366;52.498;13.446;2023-06-22T07:56:46;36.00;56.00
37518;DHT22;23366;52.498;13.446;2023-06-22T07:59:11;36.30;54.70
37518;DHT22;23366;52.498;13.446;2023-06-22T08:01:37;36.60;54.30
37518;DHT22;23366;52.498;13.446;2023-06-22T08:04:03;36.00;54.80
37518;DHT22;23366;52.498;13.446;2023-06-22T08:06:31;35.20;54.10
37518;DHT22;23366;52.498;13.446;2023-06-22T08:08:56;34.10;54.30
37518;DHT22;23366;52.498;13.446;2023-06-22T08:11:24;33.50;55.50
37518;DHT22;23366;52.498;13.446;2023-06-22T08:13:50;32.80;56.80
37518;DHT22;23366;52.498;13.446;2023-06-22T08:16:16;32.10;57.00
37518;DHT22;23366;52.498;13.446;2023-06-22T08:18:42;31.50;57.70
37518;DHT22;23366;52.498;13.446;2023-06-22T08:21:07;30.90;59.50
37518;DHT22;23366;52.498;13.446;2023-06-22T08:23:33;30.60;60.70
37518;DHT22;23366;52.498;13.446;2023-06-22T08:25:58;30.20;62.00
37518;DHT22;23366;52.498;13.446;2023-06-22T08:28:23;30.10;62.70
37518;DHT22;23366;52.498;13.446;2023-06-22T08:30:49;30.00;62.90
37518;DHT22;23366;52.498;13.446;2023-06-22T08:33:15;29.80;63.50
37518;DHT22;23366;52.498;13.446;2023-06-22T08:35:41;29.60;64.10
37518;DHT22;23366;52.498;13.446;2023-06-22T08:38:09;29.50;64.60
37518;DHT22;23366;52.498;13.446;2023-06-22T08:40:36;29.20;64.70
37518;DHT22;23366;52.498;13.446;2023-06-22T08:43:01;29.20;65.40
37518;DHT22;23366;52.498;13.446;2023-06-22T08:45:27;29.00;65.60
37518;DHT22;23366;52.498;13.446;2023-06-22T08:47:52;29.00;66.30
37518;DHT22;23366;52.498;13.446;2023-06-22T08:50:18;29.00;65.50
37518;DHT22;23366;52.498;13.446;2023-06-22T08:52:43;29.00;65.80
37518;DHT22;23366;52.498;13.446;2023-06-22T08:55:11;29.00;65.50
37518;DHT22;23366;52.498;13.446;2023-06-22T08:57:36;29.10;65.50
37518;DHT22;23366;52.498;13.446;2023-06-22T09:00:08;29.30;65.60
37518;DHT22;23366;52.498;13.446;2023-06-22T09:02:42;29.50;65.40
37518;DHT22;23366;52.498;13.446;2023-06-22T09:05:08;30.10;65.20
37518;DHT22;23366;52.498;13.446;2023-06-22T09:07:34;31.20;62.90
37518;DHT22;23366;52.498;13.446;2023-06-22T09:10:00;32.90;60.50
37518;DHT22;23366;52.498;13.446;2023-06-22T09:12:25;34.10;59.10
37518;DHT22;23366;52.498;13.446;2023-06-22T09:14:52;34.40;56.80
37518;DHT22;23366;52.498;13.446;2023-06-22T09:17:18;34.60;56.60
37518;DHT22;23366;52.498;13.446;2023-06-22T09:19:44;34.50;56.80
37518;DHT22;23366;52.498;13.446;2023-06-22T09:22:09;34.40;56.70
37518;DHT22;23366;52.498;13.446;2023-06-22T09:24:34;33.60;57.00
37518;DHT22;23366;52.498;13.446;2023-06-22T09:27:00;33.00;58.00
37518;DHT22;23366;52.498;13.446;2023-06-22T09:29:26;33.00;58.30
37518;DHT22;23366;52.498;13.446;2023-06-22T09:31:52;32.80;57.80
37518;DHT22;23366;52.498;13.446;2023-06-22T09:34:19;32.60;59.00
37518;DHT22;23366;52.498;13.446;2023-06-22T09:36:46;32.40;58.60
37518;DHT22;23366;52.498;13.446;2023-06-22T09:39:12;32.30;59.70
37518;DHT22;23366;52.498;13.446;2023-06-22T09:41:37;32.30;60.30
37518;DHT22;23366;52.498;13.446;2023-06-22T09:44:03;32.20;60.00
37518;DHT22;23366;52.498;13.446;2023-06-22T09:46:28;32.00;60.30
37518;DHT22;23366;52.498;13.446;2023-06-22T09:48:54;32.00;60.20
37518;DHT22;23366;52.498;13.446;2023-06-22T09:51:19;31.70;61.10
37518;DHT22;23366;52.498;13.446;2023-06-22T09:53:47;31.70;61.50
37518;DHT22;23366;52.498;13.446;2023-06-22T09:56:12;31.80;60.60
37518;DHT22;23366;52.498;13.446;2023-06-22T09:58:41;31.90;61.90
37518;DHT22;23366;52.498;13.446;2023-06-22T10:01:07;31.90;62.60
37518;DHT22;23366;52.498;13.446;2023-06-22T10:03:33;32.10;63.00
37518;DHT22;23366;52.498;13.446;2023-06-22T10:05:58;32.10;61.10
37518;DHT22;23366;52.498;13.446;2023-06-22T10:08:24;31.80;61.50
37518;DHT22;23366;52.498;13.446;2023-06-22T10:10:49;32.00;62.00
37518;DHT22;23366;52.498;13.446;2023-06-22T10:13:15;32.20;60.40
37518;DHT22;23366;52.498;13.446;2023-06-22T10:15:42;31.90;61.20
37518;DHT22;23366;52.498;13.446;2023-06-22T10:18:08;31.80;61.80
37518;DHT22;23366;52.498;13.446;2023-06-22T10:20:33;31.70;61.30
37518;DHT22;23366;52.498;13.446;2023-06-22T10:22:59;31.10;62.30
37518;DHT22;23366;52.498;13.446;2023-06-22T10:25:24;31.20;63.60
37518;DHT22;23366;52.498;13.446;2023-06-22T10:27:50;31.20;63.40
37518;DHT22;23366;52.498;13.446;2023-06-22T10:30:16;31.40;62.90
37518;DHT22;23366;52.498;13.446;2023-06-22T10:32:42;31.50;63.20
37518;DHT22;23366;52.498;13.446;2023-06-22T10:35:09;31.60;62.30
37518;DHT22;23366;52.498;13.446;2023-06-22T10:37:41;31.60;62.40
37518;DHT22;23366;52.498;13.446;2023-06-22T10:40:08;31.80;61.50
37518;DHT22;23366;52.498;13.446;2023-06-22T10:42:34;31.60;61.70
37518;DHT22;23366;52.498;13.446;2023-06-22T10:45:00;31.60;62.30
37518;DHT22;23366;52.498;13.446;2023-06-22T10:47:25;31.40;61.70
37518;DHT22;23366;52.498;13.446;2023-06-22T10:49:50;31.40;61.60
37518;DHT22;23366;52.498;13.446;2023-06-22T10:52:16;31.40;61.60
37518;DHT22;23366;52.498;13.446;2023-06-22T10:54:41;31.20;61.30
37518;DHT22;23366;52.498;13.446;2023-06-22T10:57:07;31.00;61.30
37518;DHT22;23366;52.498;13.446;2023-06-22T10:59:32;30.70;61.90
37518;DHT22;23366;52.498;13.446;2023-06-22T11:01:58;30.70;62.10
37518;DHT22;23366;52.498;13.446;2023-06-22T11:04:24;30.40;62.60
37518;DHT22;23366;52.498;13.446;2023-06-22T11:06:50;30.50;63.70
37518;DHT22;23366;52.498;13.446;2023-06-22T11:09:16;30.70;63.00
37518;DHT22;23366;52.498;13.446;2023-06-22T11:11:49;30.60;62.50
37518;DHT22;23366;52.498;13.446;2023-06-22T11:14:15;30.50;62.60
37518;DHT22;23366;52.498;13.446;2023-06-22T11:16:41;30.40;62.60
37518;DHT22;23366;52.498;13.446;2023-06-22T11:19:06;30.10;62.60
37518;DHT22;23366;52.498;13.446;2023-06-22T11:21:32;30.00;62.90
37518;DHT22;23366;52.498;13.446;2023-06-22T11:23:58;29.90;64.20
37518;DHT22;23366;52.498;13.446;2023-06-22T11:26:24;29.80;63.10
37518;DHT22;23366;52.498;13.446;2023-06-22T11:28:50;29.70;63.40
37518;DHT22;23366;52.498;13.446;2023-06-22T11:31:16;29.60;63.90
37518;DHT22;23366;52.498;13.446;2023-06-22T11:33:41;29.80;63.50
37518;DHT22;23366;52.498;13.446;2023-06-22T11:36:07;29.70;63.40
37518;DHT22;23366;52.498;13.446;2023-06-22T11:38:32;29.70;63.80
37518;DHT22;23366;52.498;13.446;2023-06-22T11:40:58;29.90;63.80
37518;DHT22;23366;52.498;13.446;2023-06-22T11:43:24;29.90;62.70
37518;DHT22;23366;52.498;13.446;2023-06-22T11:45:50;29.80;62.10
37518;DHT22;23366;52.498;13.446;2023-06-22T11:48:15;29.50;63.10
37518;DHT22;23366;52.498;13.446;2023-06-22T11:50:41;29.50;63.40
37518;DHT22;23366;52.498;13.446;2023-06-22T11:53:07;29.50;62.90
37518;DHT22;23366;52.498;13.446;2023-06-22T11:55:32;29.20;63.20
37518;DHT22;23366;52.498;13.446;2023-06-22T11:57:58;29.20;64.00
37518;DHT22;23366;52.498;13.446;2023-06-22T12:00:29;29.30;63.70
37518;DHT22;23366;52.498;13.446;2023-06-22T12:02:55;29.50;63.30
37518;DHT22;23366;52.498;13.446;2023-06-22T12:05:21;29.50;62.90
37518;DHT22;23366;52.498;13.446;2023-06-22T12:07:48;29.50;62.90
37518;DHT22;23366;52.498;13.446;2023-06-22T12:10:14;29.50;63.20
37518;DHT22;23366;52.498;13.446;2023-06-22T12:12:39;29.50;63.10
37518;DHT22;23366;52.498;13.446;2023-06-22T12:15:05;29.40;62.80
37518;DHT22;23366;52.498;13.446;2023-06-22T12:17:31;29.50;63.10
37518;DHT22;23366;52.498;13.446;2023-06-22T12:19:56;29.50;63.10
37518;DHT22;23366;52.498;13.446;2023-06-22T12:22:22;29.70;62.80
37518;DHT22;23366;52.498;13.446;2023-06-22T12:24:48;29.60;63.20
37518;DHT22;23366;52.498;13.446;2023-06-22T12:27:13;29.80;63.40
37518;DHT22;23366;52.498;13.446;2023-06-22T12:29:41;29.70;63.10
37518;DHT22;23366;52.498;13.446;2023-06-22T12:32:07;29.40;63.30
37518;DHT22;23366;52.498;13.446;2023-06-22T12:34:33;29.30;63.10
37518;DHT22;23366;52.498;13.446;2023-06-22T12:36:58;29.30;63.70
37518;DHT22;23366;52.498;13.446;2023-06-22T12:39:24;29.30;64.20
37518;DHT22;23366;52.498;13.446;2023-06-22T12:41:49;29.00;64.10
37518;DHT22;23366;52.498;13.446;2023-06-22T12:44:15;28.90;64.90
37518;DHT22;23366;52.498;13.446;2023-06-22T12:46:40;28.80;64.90
37518;DHT22;23366;52.498;13.446;2023-06-22T12:49:06;28.70;64.90
37518;DHT22;23366;52.498;13.446;2023-06-22T12:51:31;28.50;64.80
37518;DHT22;23366;52.498;13.446;2023-06-22T12:53:57;28.40;65.60
37518;DHT22;23366;52.498;13.446;2023-06-22T12:56:22;28.30;66.00
37518;DHT22;23366;52.498;13.446;2023-06-22T12:58:48;28.30;66.00
37518;DHT22;23366;52.498;13.446;2023-06-22T13:01:14;28.30;66.00
37518;DHT22;23366;52.498;13.446;2023-06-22T13:03:42;28.30;66.10
37518;DHT22;23366;52.498;13.446;2023-06-22T13:06:07;28.40;66.30
37518;DHT22;23366;52.498;13.446;2023-06-22T13:08:33;28.40;66.10
37518;DHT22;23366;52.498;13.446;2023-06-22T13:10:58;28.40;66.30
37518;DHT22;23366;52.498;13.446;2023-06-22T13:13:25;28.60;66.30
37518;DHT22;23366;52.498;13.446;2023-06-22T13:15:53;28.70;66.40
37518;DHT22;23366;52.498;13.446;2023-06-22T13:18:19;28.90;66.90
37518;DHT22;23366;52.498;13.446;2023-06-22T13:20:44;28.90;66.50
37518;DHT22;23366;52.498;13.446;2023-06-22T13:23:11;29.00;66.30
37518;DHT22;23366;52.498;13.446;2023-06-22T13:25:37;29.00;65.60
37518;DHT22;23366;52.498;13.446;2023-06-22T13:28:03;29.00;66.30
37518;DHT22;23366;52.498;13.446;2023-06-22T13:30:28;28.80;65.40
37518;DHT22;23366;52.498;13.446;2023-06-22T13:32:54;28.70;65.90
37518;DHT22;23366;52.498;13.446;2023-06-22T13:35:19;28.70;66.60
37518;DHT22;23366;52.498;13.446;2023-06-22T13:37:45;28.50;66.20
37518;DHT22;23366;52.498;13.446;2023-06-22T13:40:10;28.30;66.80
37518;DHT22;23366;52.498;13.446;2023-06-22T13:42:36;28.20;67.30
37518;DHT22;23366;52.498;13.446;2023-06-22T13:45:02;28.10;67.50
37518;DHT22;23366;52.498;13.446;2023-06-22T13:47:29;28.10;67.70
37518;DHT22;23366;52.498;13.446;2023-06-22T13:49:55;28.20;68.40
37518;DHT22;23366;52.498;13.446;2023-06-22T13:52:20;28.30;68.40
37518;DHT22;23366;52.498;13.446;2023-06-22T13:54:46;28.30;68.00
37518;DHT22;23366;52.498;13.446;2023-06-22T13:57:11;28.20;67.60
37518;DHT22;23366;52.498;13.446;2023-06-22T13:59:37;28.10;67.70
37518;DHT22;23366;52.498;13.446;2023-06-22T14:02:02;28.10;68.00
37518;DHT22;23366;52.498;13.446;2023-06-22T14:04:28;28.10;68.00
37518;DHT22;23366;52.498;13.446;2023-06-22T14:06:54;28.10;68.10
37518;DHT22;23366;52.498;13.446;2023-06-22T14:09:21;28.10;68.50
37518;DHT22;23366;52.498;13.446;2023-06-22T14:11:46;28.10;68.50
37518;DHT22;23366;52.498;13.446;2023-06-22T14:14:12;28.00;68.30
37518;DHT22;23366;52.498;13.446;2023-06-22T14:16:37;28.00;69.10
37518;DHT22;23366;52.498;13.446;2023-06-22T14:19:03;28.00;68.40
37518;DHT22;23366;52.498;13.446;2023-06-22T14:21:28;27.90;68.60
37518;DHT22;23366;52.498;13.446;2023-06-22T14:23:54;27.90;68.70
37518;DHT22;23366;52.498;13.446;2023-06-22T14:26:20;27.80;68.70
37518;DHT22;23366;52.498;13.446;2023-06-22T14:28:47;27.90;69.40
37518;DHT22;23366;52.498;13.446;2023-06-22T14:31:17;27.90;69.10
37518;DHT22;23366;52.498;13.446;2023-06-22T14:33:48;27.90;69.20
37518;DHT22;23366;52.498;13.446;2023-06-22T14:36:17;27.90;69.20
37518;DHT22;23366;52.498;13.446;2023-06-22T14:38:43;28.00;68.50
37518;DHT22;23366;52.498;13.446;2023-06-22T14:41:09;28.10;68.60
37518;DHT22;23366;52.498;13.446;2023-06-22T14:43:34;28.10;68.90
37518;DHT22;23366;52.498;13.446;2023-06-22T14:46:00;28.00;68.60
37518;DHT22;23366;52.498;13.446;2023-06-22T14:48:26;28.00;68.90
37518;DHT22;23366;52.498;13.446;2023-06-22T14:50:51;27.90;68.70
37518;DHT22;23366;52.498;13.446;2023-06-22T14:53:19;27.90;69.20
37518;DHT22;23366;52.498;13.446;2023-06-22T14:55:44;27.90;69.10
37518;DHT22;23366;52.498;13.446;2023-06-22T14:58:10;27.90;69.00
37518;DHT22;23366;52.498;13.446;2023-06-22T15:00:36;27.80;68.60
37518;DHT22;23366;52.498;13.446;2023-06-22T15:03:02;27.80;68.90
37518;DHT22;23366;52.498;13.446;2023-06-22T15:05:28;27.80;69.30
37518;DHT22;23366;52.498;13.446;2023-06-22T15:07:56;27.80;69.00
37518;DHT22;23366;52.498;13.446;2023-06-22T15:10:21;27.90;69.10
37518;DHT22;23366;52.498;13.446;2023-06-22T15:12:47;27.90;69.40
37518;DHT22;23366;52.498;13.446;2023-06-22T15:15:12;27.90;69.40